Time;durP1;ratioP1;P1;durP2;ratioP2;P2;SDS_P1;SDS_P2;PMS_P1;PMS_P2;Temp;Humidity;BMP_temperature;BMP_pressure;BME280_temperature;BME280_humidity;BME280_pressure;Samples;Min_cycle;Max_cycle;Signal;HPM_P1;HPM_P2
2021/04/04 00:02:14;;;;;;;20.80;7.50;;;6.30;99.90;;;;;;5074284;28;20167;-85
2021/04/04 00:04:40;;;;;;;15.87;6.60;;;6.30;99.90;;;;;;5056260;28;20176;-83
2021/04/04 00:07:05;;;;;;;20.77;6.70;;;6.30;1.00;;;;;;5074383;28;20229;-84
2021/04/04 00:09:31;;;;;;;20.80;6.07;;;6.20;1.00;;;;;;5073721;28;20180;-83
2021/04/04 00:11:56;;;;;;;16.13;6.40;;;6.20;1.00;;;;;;5055967;28;20183;-84
2021/04/04 00:14:22;;;;;;;16.67;6.43;;;6.30;1.00;;;;;;5074009;28;20516;-83
2021/04/04 00:16:48;;;;;;;17.30;6.00;;;6.40;99.90;;;;;;5073824;28;20179;-84
2021/04/04 00:19:13;;;;;;;15.63;6.57;;;6.40;1.00;;;;;;5074186;28;20269;-83
2021/04/04 00:21:39;;;;;;;14.90;5.93;;;6.40;99.90;;;;;;5073786;28;20176;-81
2021/04/04 00:24:07;;;;;;;17.47;7.03;;;6.40;99.90;;;;;;5073687;28;20211;-83
2021/04/04 00:26:33;;;;;;;18.43;5.70;;;6.40;99.90;;;;;;5073796;28;20173;-84
2021/04/04 00:28:59;;;;;;;16.77;5.93;;;6.40;99.90;;;;;;5055852;28;20245;-83
2021/04/04 00:31:24;;;;;;;18.93;6.37;;;6.40;99.90;;;;;;5073569;28;20176;-82
2021/04/04 00:33:50;;;;;;;18.10;5.80;;;6.40;99.90;;;;;;5073691;28;20253;-83
2021/04/04 00:36:16;;;;;;;16.23;5.70;;;6.40;99.90;;;;;;5073334;28;20204;-80
2021/04/04 00:38:41;;;;;;;17.27;6.53;;;6.50;1.00;;;;;;5074605;28;20232;-83
2021/04/04 00:41:07;;;;;;;23.57;6.40;;;6.50;1.00;;;;;;5073482;28;20648;-83
2021/04/04 00:43:33;;;;;;;17.60;7.07;;;6.50;1.00;;;;;;5073657;28;20172;-81
2021/04/04 00:45:58;;;;;;;18.87;6.87;;;6.50;99.90;;;;;;5073370;28;20237;-82
2021/04/04 00:48:25;;;;;;;15.80;7.30;;;6.50;99.90;;;;;;5073426;28;20174;-79
2021/04/04 00:50:50;;;;;;;18.80;6.77;;;6.50;1.00;;;;;;5055292;28;20184;-83
2021/04/04 00:53:16;;;;;;;20.63;6.57;;;6.50;99.90;;;;;;5073276;28;20177;-83
2021/04/04 00:55:42;;;;;;;18.60;5.97;;;6.50;99.90;;;;;;5055061;28;20199;-79
2021/04/04 00:58:10;;;;;;;19.63;7.07;;;6.60;99.90;;;;;;5073087;28;20290;-84
2021/04/04 01:00:35;;;;;;;14.13;5.67;;;6.60;99.90;;;;;;5073407;28;20187;-83
2021/04/04 01:03:02;;;;;;;17.00;6.27;;;6.60;1.00;;;;;;5073312;28;20164;-81
2021/04/04 01:05:43;;;;;;;14.83;5.60;;;6.60;1.00;;;;;;5055142;28;20180;-83
2021/04/04 01:08:09;;;;;;;18.13;6.13;;;6.60;1.00;;;;;;5072970;28;20201;-81
2021/04/04 01:10:37;;;;;;;17.47;6.23;;;6.50;99.90;;;;;;5056071;28;20180;-85
2021/04/04 01:13:29;;;;;;;14.33;5.67;;;6.60;99.90;;;;;;5073411;28;20259;-83
2021/04/04 01:15:54;;;;;;;16.83;6.27;;;6.60;1.00;;;;;;5073087;28;20187;-83
2021/04/04 01:18:41;;;;;;;13.47;5.90;;;6.60;1.00;;;;;;5054994;28;20739;-82
2021/04/04 01:21:21;;;;;;;14.23;6.03;;;6.60;99.90;;;;;;5055080;28;20172;-85
2021/04/04 01:24:14;;;;;;;14.67;6.90;;;6.60;99.90;;;;;;5073228;28;20180;-83
2021/04/04 01:27:02;;;;;;;18.67;5.57;;;6.70;1.00;;;;;;5072814;28;20251;-84
2021/04/04 01:29:31;;;;;;;20.67;6.90;;;6.70;99.90;;;;;;5055124;28;20180;-83
2021/04/04 01:31:57;;;;;;;13.67;5.43;;;6.70;1.00;;;;;;5073042;28;20164;-83
2021/04/04 01:34:26;;;;;;;21.00;5.90;;;6.70;1.00;;;;;;5055160;28;20172;-79
2021/04/04 01:36:55;;;;;;;15.73;6.07;;;6.70;1.00;;;;;;5072823;28;20168;-84
2021/04/04 01:39:24;;;;;;;16.87;6.40;;;6.70;1.00;;;;;;5054898;28;20207;-83
2021/04/04 01:41:53;;;;;;;14.63;6.37;;;6.70;99.90;;;;;;5072906;28;20713;-81
2021/04/04 01:44:21;;;;;;;22.20;5.33;;;6.80;1.00;;;;;;5055693;28;20177;-79
2021/04/04 01:46:49;;;;;;;12.90;5.83;;;6.80;1.00;;;;;;5072917;28;20164;-83
2021/04/04 01:49:16;;;;;;;20.97;6.13;;;6.70;1.00;;;;;;5076755;28;20168;-82
2021/04/04 01:51:43;;;;;;;11.33;5.53;;;6.80;99.90;;;;;;5076514;28;20169;-80
2021/04/04 01:54:10;;;;;;;13.37;5.67;;;6.80;28.50;;;;;;5076538;28;20168;-82
2021/04/04 01:56:36;;;;;;;20.57;6.67;;;6.80;99.90;;;;;;5076631;28;20184;-82
2021/04/04 01:59:03;;;;;;;16.97;6.93;;;6.80;99.90;;;;;;5076370;28;20204;-80
2021/04/04 02:01:30;;;;;;;22.10;7.33;;;6.80;1.00;;;;;;5076435;28;20203;-79
2021/04/04 02:04:01;;;;;;;16.87;6.47;;;6.70;99.90;;;;;;5058373;28;20177;-81
2021/04/04 02:06:26;;;;;;;18.40;6.60;;;6.70;1.00;;;;;;5058582;28;20261;-83
2021/04/04 02:08:54;;;;;;;12.77;6.50;;;6.70;1.00;;;;;;5076362;28;20669;-83
2021/04/04 02:11:24;;;;;;;14.57;6.43;;;6.70;1.00;;;;;;5058385;28;20179;-83
2021/04/04 02:13:51;;;;;;;18.63;6.67;;;6.60;1.00;;;;;;5076344;28;20164;-82
2021/04/04 02:16:20;;;;;;;14.40;7.00;;;6.60;99.90;;;;;;5076166;28;20164;-83
2021/04/04 02:18:47;;;;;;;15.37;6.33;;;6.60;99.90;;;;;;5058121;28;20291;-82
2021/04/04 02:21:14;;;;;;;18.43;7.10;;;6.70;1.00;;;;;;5058157;28;20593;-83
2021/04/04 02:23:41;;;;;;;13.90;6.00;;;6.70;1.00;;;;;;5075847;28;20173;-83
2021/04/04 02:26:07;;;;;;;18.80;5.90;;;6.60;99.90;;;;;;5076045;28;20179;-84
2021/04/04 02:28:32;;;;;;;10.93;5.80;;;6.50;1.00;;;;;;5075770;28;20191;-83
2021/04/04 02:31:00;;;;;;;14.70;5.93;;;6.50;1.00;;;;;;5058174;28;20180;-80
2021/04/04 02:33:30;;;;;;;16.00;5.83;;;6.50;99.90;;;;;;5075891;28;20164;-80
2021/04/04 02:36:00;;;;;;;13.83;5.83;;;6.50;1.00;;;;;;5057750;28;20168;-80
2021/04/04 02:38:39;;;;;;;13.30;6.00;;;6.50;1.00;;;;;;5075547;28;20659;-83
2021/04/04 02:41:07;;;;;;;13.07;4.97;;;6.50;1.00;;;;;;5075677;28;20214;-83
2021/04/04 02:43:35;;;;;;;14.90;5.67;;;6.50;1.00;;;;;;5075652;28;20168;-83
2021/04/04 02:46:06;;;;;;;14.80;5.57;;;6.50;1.00;;;;;;5075578;28;20165;-83
2021/04/04 02:48:41;;;;;;;12.97;5.57;;;6.40;99.90;;;;;;5075226;28;20693;-83
2021/04/04 02:51:09;;;;;;;14.63;5.87;;;6.40;99.90;;;;;;5075371;28;20175;-84
2021/04/04 02:53:42;;;;;;;17.33;5.87;;;6.40;99.90;;;;;;5075569;28;20173;-84
2021/04/04 02:56:11;;;;;;;13.60;5.20;;;6.40;1.00;;;;;;5075581;28;20168;-82
2021/04/04 02:58:39;;;;;;;13.43;5.43;;;6.40;99.90;;;;;;5075334;28;20309;-82
2021/04/04 03:01:06;;;;;;;15.47;5.07;;;6.40;99.90;;;;;;5057538;28;20259;-83
2021/04/04 03:03:33;;;;;;;16.37;5.30;;;6.40;99.90;;;;;;5056919;28;20180;-80
2021/04/04 03:06:03;;;;;;;13.27;4.40;;;6.40;99.90;;;;;;5077460;28;20164;-81
2021/04/04 03:08:30;;;;;;;19.17;5.17;;;6.40;99.90;;;;;;5075175;28;20260;-81
2021/04/04 03:10:58;;;;;;;20.37;5.33;;;6.40;99.90;;;;;;5075188;28;20178;-81
2021/04/04 03:13:24;;;;;;;14.10;5.03;;;6.40;99.90;;;;;;5074976;28;20160;-83
2021/04/04 03:15:51;;;;;;;11.93;4.83;;;6.50;99.90;;;;;;5074964;28;20705;-84
2021/04/04 03:18:20;;;;;;;14.90;4.77;;;6.50;1.00;;;;;;5074944;28;20310;-83
2021/04/04 03:20:47;;;;;;;13.33;4.80;;;6.50;99.90;;;;;;5056937;28;20199;-81
2021/04/04 03:23:17;;;;;;;15.73;4.83;;;6.50;99.90;;;;;;5075077;28;20636;-83
2021/04/04 03:25:44;;;;;;;11.47;4.63;;;6.50;99.90;;;;;;5056813;28;20539;-81
2021/04/04 03:28:12;;;;;;;15.77;4.50;;;6.50;99.90;;;;;;5056926;28;20191;-82
2021/04/04 03:30:44;;;;;;;19.07;5.73;;;6.50;99.90;;;;;;5074684;28;20160;-84
2021/04/04 03:33:18;;;;;;;13.47;4.87;;;6.50;99.90;;;;;;5074569;28;20251;-83
2021/04/04 03:35:46;;;;;;;11.73;5.03;;;6.60;99.90;;;;;;5074620;28;20248;-82
2021/04/04 03:38:14;;;;;;;13.90;4.60;;;6.60;99.90;;;;;;5074525;28;20204;-83
2021/04/04 03:40:41;;;;;;;13.73;4.87;;;6.70;99.90;;;;;;5074344;28;20549;-84
2021/04/04 03:43:14;;;;;;;16.20;4.90;;;6.70;99.90;;;;;;5056671;28;20176;-83
2021/04/04 03:45:39;;;;;;;11.87;4.50;;;6.60;99.90;;;;;;5056316;28;20169;-82
2021/04/04 03:48:05;;;;;;;17.53;5.37;;;6.60;99.90;;;;;;5074157;28;20533;-82
2021/04/04 03:50:34;;;;;;;14.30;4.47;;;6.60;99.90;;;;;;5074157;28;20225;-84
2021/04/04 03:53:01;;;;;;;15.57;5.33;;;6.60;31.40;;;;;;5074426;28;20214;-82
2021/04/04 03:55:28;;;;;;;19.53;4.97;;;6.60;99.90;;;;;;5074183;28;20168;-83
2021/04/04 03:57:54;;;;;;;11.17;4.47;;;6.70;63.50;;;;;;5074253;28;20168;-82
2021/04/04 04:00:23;;;;;;;14.80;5.30;;;6.70;99.90;;;;;;5074502;28;20636;-81
2021/04/04 04:02:50;;;;;;;16.33;4.30;;;6.60;99.90;;;;;;5056436;28;20176;-82
2021/04/04 04:05:19;;;;;;;14.30;4.53;;;6.60;99.90;;;;;;5056034;28;20177;-78
2021/04/04 04:07:46;;;;;;;15.00;4.77;;;6.60;99.90;;;;;;5073835;28;20169;-82
2021/04/04 04:10:15;;;;;;;13.83;4.40;;;6.60;1.00;;;;;;5073164;28;20175;-80
2021/04/04 04:12:41;;;;;;;9.40;4.90;;;6.60;1.00;;;;;;5074011;28;20221;-81
2021/04/04 04:15:08;;;;;;;14.10;4.50;;;6.70;1.00;;;;;;5056048;28;20611;-79
2021/04/04 04:17:35;;;;;;;10.57;4.27;;;6.70;99.90;;;;;;5073603;28;20259;-83
2021/04/04 04:20:01;;;;;;;13.50;5.43;;;6.70;99.90;;;;;;5055583;28;20656;-82
2021/04/04 04:22:27;;;;;;;14.67;4.03;;;6.60;1.00;;;;;;5073822;28;20251;-82
2021/04/04 04:24:53;;;;;;;13.77;4.83;;;6.50;1.00;;;;;;5074016;28;20182;-81
2021/04/04 04:27:20;;;;;;;15.87;4.60;;;6.50;1.00;;;;;;5073661;28;20183;-81
2021/04/04 04:29:50;;;;;;;11.80;4.70;;;6.50;1.00;;;;;;5073508;28;20255;-84
2021/04/04 04:32:20;;;;;;;13.43;4.80;;;6.50;99.90;;;;;;5055967;28;20514;-81
2021/04/04 04:34:48;;;;;;;15.53;6.13;;;6.50;99.90;;;;;;5073746;28;20555;-83
2021/04/04 04:37:14;;;;;;;15.33;5.37;;;6.40;1.00;;;;;;5073515;28;20173;-82
2021/04/04 04:39:42;;;;;;;14.17;5.27;;;6.40;1.00;;;;;;5055552;28;20211;-81
2021/04/04 04:42:15;;;;;;;9.47;4.67;;;6.50;1.00;;;;;;5073646;28;20329;-83
2021/04/04 04:44:44;;;;;;;14.50;5.33;;;6.50;1.00;;;;;;5073467;28;20203;-82
2021/04/04 04:47:12;;;;;;;19.70;5.53;;;6.50;1.00;;;;;;5073338;28;20651;-82
2021/04/04 04:49:41;;;;;;;10.07;4.93;;;6.50;17.60;;;;;;5073180;28;20250;-83
2021/04/04 04:52:07;;;;;;;12.10;4.53;;;6.60;1.00;;;;;;5073213;28;20168;-83
2021/04/04 04:54:33;;;;;;;15.73;5.03;;;6.60;99.90;;;;;;5073443;28;20254;-82
2021/04/04 04:57:00;;;;;;;15.73;5.43;;;6.60;59.50;;;;;;5055475;28;20172;-80
2021/04/04 04:59:27;;;;;;;17.37;5.50;;;6.50;1.00;;;;;;5072945;28;20227;-81
2021/04/04 05:01:53;;;;;;;12.13;4.93;;;6.50;99.90;;;;;;5073012;28;20652;-82
2021/04/04 05:04:19;;;;;;;15.90;6.67;;;6.60;99.90;;;;;;5073342;28;20183;-82
2021/04/04 05:06:47;;;;;;;12.87;5.50;;;6.50;99.90;;;;;;5055098;28;20172;-83
2021/04/04 05:09:14;;;;;;;15.50;6.20;;;6.60;1.00;;;;;;5073442;28;20651;-84
2021/04/04 05:11:43;;;;;;;17.70;5.87;;;6.60;1.00;;;;;;5073083;28;20164;-82
2021/04/04 05:14:12;;;;;;;17.00;6.53;;;6.60;1.00;;;;;;5072883;28;20176;-79
2021/04/04 05:16:39;;;;;;;13.60;6.30;;;6.60;35.90;;;;;;5073061;28;20174;-83
2021/04/04 05:19:09;;;;;;;11.40;4.93;;;6.60;99.90;;;;;;5072921;28;20652;-80
2021/04/04 05:21:37;;;;;;;16.03;5.90;;;6.60;99.90;;;;;;5072782;28;20215;-82
2021/04/04 05:24:05;;;;;;;14.47;5.60;;;6.60;99.90;;;;;;5076645;28;20259;-82
2021/04/04 05:26:41;;;;;;;13.50;5.27;;;6.60;1.00;;;;;;5077169;28;20164;-81
2021/04/04 05:29:09;;;;;;;12.57;5.40;;;6.60;99.90;;;;;;5076969;28;20217;-80
2021/04/04 05:31:46;;;;;;;19.30;5.60;;;6.60;99.90;;;;;;5058939;28;20698;-85
2021/04/04 05:34:13;;;;;;;12.37;4.83;;;6.50;99.90;;;;;;5059111;28;20168;-83
2021/04/04 05:36:52;;;;;;;16.03;5.73;;;6.60;99.90;;;;;;5058690;28;20628;-80
2021/04/04 05:39:23;;;;;;;18.00;6.00;;;6.60;1.00;;;;;;5076870;28;20242;-79
2021/04/04 05:42:10;;;;;;;12.93;5.30;;;6.60;1.00;;;;;;5076731;28;20203;-82
2021/04/04 05:44:41;;;;;;;19.80;6.00;;;6.60;1.00;;;;;;5076522;28;20161;-78
2021/04/04 05:47:12;;;;;;;23.53;6.47;;;6.70;1.00;;;;;;5058666;28;20222;-83
2021/04/04 05:50:03;;;;;;;12.83;6.87;;;6.80;99.90;;;;;;5076715;28;20160;-83
2021/04/04 05:52:31;;;;;;;18.80;7.10;;;6.80;18.60;;;;;;5058949;28;20211;-82
2021/04/04 05:55:06;;;;;;;15.37;6.43;;;6.70;1.00;;;;;;5058461;28;20626;-82
2021/04/04 05:57:41;;;;;;;19.87;7.33;;;6.70;99.90;;;;;;5058220;28;20176;-83
2021/04/04 06:00:09;;;;;;;14.43;6.00;;;6.70;99.90;;;;;;5076163;28;20769;-84
2021/04/04 06:03:05;;;;;;;15.77;6.37;;;6.80;33.00;;;;;;5058395;28;20228;-84
2021/04/04 06:06:07;;;;;;;11.07;6.97;;;6.90;1.00;;;;;;5058206;28;20636;-82
2021/04/04 06:09:10;;;;;;;15.97;7.77;;;6.90;1.00;;;;;;5076035;28;20192;-83
2021/04/04 06:12:10;;;;;;;20.77;11.10;;;6.90;1.00;;;;;;5075959;28;20168;-79
2021/04/04 06:14:58;;;;;;;21.20;10.90;;;7.00;99.90;;;;;;5058019;28;20701;-82
2021/04/04 06:18:05;;;;;;;22.17;10.73;;;7.10;99.90;;;;;;5076038;28;20164;-79
2021/04/04 06:21:09;;;;;;;20.50;9.97;;;7.10;92.30;;;;;;5058115;28;20317;-82
2021/04/04 06:23:48;;;;;;;24.07;9.80;;;7.00;1.00;;;;;;5076265;28;20177;-83
2021/04/04 06:26:29;;;;;;;19.63;9.70;;;7.00;99.90;;;;;;5075653;28;20695;-82
2021/04/04 06:29:06;;;;;;;20.60;10.23;;;7.00;99.90;;;;;;5075866;28;20188;-82
2021/04/04 06:31:50;;;;;;;20.93;10.43;;;7.10;99.90;;;;;;5075898;28;20632;-81
2021/04/04 06:34:21;;;;;;;21.83;12.50;;;7.10;65.10;;;;;;5075103;28;20225;-83
2021/04/04 06:37:03;;;;;;;22.53;14.30;;;7.20;1.00;;;;;;5075708;28;20164;-79
2021/04/04 06:39:46;;;;;;;20.17;12.77;;;7.20;99.90;;;;;;5075647;28;20212;-80
2021/04/04 06:42:23;;;;;;;20.93;13.10;;;7.10;99.90;;;;;;5057180;28;20562;-80
2021/04/04 06:45:01;;;;;;;28.60;14.43;;;7.10;1.00;;;;;;5057483;28;20172;-83
2021/04/04 06:48:01;;;;;;;23.23;13.27;;;7.10;1.00;;;;;;5075645;28;20171;-83
2021/04/04 06:50:33;;;;;;;20.33;10.93;;;7.00;1.00;;;;;;5024232;28;20693;-79
2021/04/04 06:53:28;;;;;;;22.10;12.57;;;7.00;1.00;;;;;;5075463;28;20195;-82
2021/04/04 06:56:16;;;;;;;21.50;12.87;;;7.00;1.00;;;;;;5075047;28;20177;-83
2021/04/04 06:58:49;;;;;;;17.53;10.90;;;7.00;1.00;;;;;;5075690;28;20287;-83
2021/04/04 07:01:46;;;;;;;22.23;11.57;;;7.10;1.00;;;;;;5075218;28;20651;-83
2021/04/04 07:04:22;;;;;;;23.37;11.83;;;7.00;1.00;;;;;;5075186;28;20169;-82
2021/04/04 07:07:03;;;;;;;18.47;11.77;;;7.00;84.40;;;;;;5075064;28;20736;-83
2021/04/04 07:09:34;;;;;;;18.93;12.17;;;7.00;99.90;;;;;;5074911;28;20176;-80
2021/04/04 07:12:17;;;;;;;20.37;11.87;;;7.10;36.50;;;;;;5074953;28;20180;-83
2021/04/04 07:15:06;;;;;;;23.80;15.83;;;7.10;99.90;;;;;;5056837;28;20538;-83
2021/04/04 07:18:08;;;;;;;22.77;12.83;;;7.10;1.00;;;;;;5075136;28;20247;-80
2021/04/04 07:21:04;;;;;;;28.83;13.13;;;7.10;1.00;;;;;;5074370;28;20184;-84
2021/04/04 07:23:38;;;;;;;18.20;11.40;;;7.20;1.00;;;;;;5074558;28;20168;-80
2021/04/04 07:26:21;;;;;;;19.43;13.47;;;7.20;1.00;;;;;;5074313;28;20186;-81
2021/04/04 07:28:58;;;;;;;22.17;13.83;;;7.20;1.00;;;;;;5056493;28;20686;-83
2021/04/04 07:31:41;;;;;;;23.20;13.10;;;7.20;1.00;;;;;;5074457;28;20190;-83
2021/04/04 07:34:19;;;;;;;17.83;12.70;;;7.10;1.00;;;;;;5074466;28;20164;-83
2021/04/04 07:37:02;;;;;;;19.10;11.90;;;7.10;99.90;;;;;;5074279;28;20176;-84
2021/04/04 07:39:45;;;;;;;24.73;13.87;;;7.10;45.00;;;;;;5073970;28;20261;-80
2021/04/04 07:42:31;;;;;;;25.43;15.60;;;7.20;46.90;;;;;;5056228;28;20608;-80
2021/04/04 07:45:31;;;;;;;24.63;13.10;;;7.30;1.00;;;;;;5055667;28;20234;-82
2021/04/04 07:48:06;;;;;;;22.80;13.97;;;7.40;1.00;;;;;;5074319;28;20172;-83
2021/04/04 07:50:54;;;;;;;25.57;14.67;;;7.50;1.00;;;;;;5073987;28;20168;-83
2021/04/04 07:53:29;;;;;;;23.63;15.17;;;7.50;99.90;;;;;;5073930;28;20181;-82
2021/04/04 07:56:07;;;;;;;23.10;13.83;;;7.50;99.90;;;;;;5073733;28;20576;-80
2021/04/04 07:58:37;;;;;;;25.70;12.80;;;7.50;99.90;;;;;;5056028;28;20668;-81
2021/04/04 08:01:10;;;;;;;24.13;13.23;;;7.50;99.90;;;;;;5073214;28;20168;-83
2021/04/04 08:03:55;;;;;;;29.33;16.00;;;7.60;99.90;;;;;;5073474;28;20172;-83
2021/04/04 08:06:27;;;;;;;26.80;15.67;;;7.40;91.30;;;;;;5073484;28;20160;-82
2021/04/04 08:09:07;;;;;;;28.17;15.80;;;7.50;99.90;;;;;;5055459;28;20168;-85
2021/04/04 08:11:58;;;;;;;31.77;17.83;;;7.50;1.00;;;;;;5073468;28;20172;-84
2021/04/04 08:14:31;;;;;;;26.63;18.17;;;7.60;1.00;;;;;;5073516;28;20176;-83
2021/04/04 08:16:58;;;;;;;27.27;16.80;;;7.70;1.00;;;;;;5073491;28;20632;-83
2021/04/04 08:19:25;;;;;;;27.50;18.03;;;7.50;1.00;;;;;;5073399;28;20273;-80
2021/04/04 08:22:02;;;;;;;30.83;17.90;;;7.50;1.00;;;;;;5054760;28;20177;-83
2021/04/04 08:25:01;;;;;;;29.00;19.13;;;7.60;1.00;;;;;;5073447;28;20183;-83
2021/04/04 08:27:36;;;;;;;31.10;18.67;;;7.50;1.00;;;;;;5072759;28;20275;-81
2021/04/04 08:30:24;;;;;;;28.73;17.73;;;7.70;1.00;;;;;;5073307;28;20164;-81
2021/04/04 08:32:59;;;;;;;27.53;18.27;;;7.80;1.00;;;;;;5073196;28;20171;-85
2021/04/04 08:35:32;;;;;;;30.73;19.77;;;7.70;1.00;;;;;;5055505;28;20199;-83
2021/04/04 08:38:39;;;;;;;26.93;18.93;;;7.60;1.00;;;;;;5072581;28;20251;-79
2021/04/04 08:41:06;;;;;;;32.13;20.30;;;7.60;1.00;;;;;;5054269;28;20299;-81
2021/04/04 08:43:34;;;;;;;32.23;20.67;;;7.70;1.00;;;;;;5073243;28;20169;-81
2021/04/04 08:46:34;;;;;;;33.20;20.77;;;7.80;1.00;;;;;;5072594;28;20715;-79
2021/04/04 08:49:02;;;;;;;32.00;21.27;;;8.00;1.00;;;;;;5072979;28;20187;-81
2021/04/04 08:51:29;;;;;;;29.90;20.50;;;8.00;99.90;;;;;;5072669;28;20247;-84
2021/04/04 08:53:57;;;;;;;29.97;20.67;;;8.10;99.90;;;;;;5055007;28;20479;-83
2021/04/04 08:56:23;;;;;;;32.90;20.23;;;8.00;99.90;;;;;;5073999;28;20176;-80
2021/04/04 08:58:51;;;;;;;30.97;21.20;;;7.90;99.90;;;;;;5057500;28;20231;-82
2021/04/04 09:01:39;;;;;;;32.63;20.60;;;8.00;1.00;;;;;;5072799;28;20173;-82
2021/04/04 09:04:07;;;;;;;30.87;21.10;;;8.00;1.00;;;;;;5073117;28;20164;-84
2021/04/04 09:06:40;;;;;;;28.37;19.53;;;7.90;1.00;;;;;;5054388;28;20172;-83
2021/04/04 09:09:25;;;;;;;33.40;21.20;;;8.00;99.90;;;;;;5072934;28;20168;-81
2021/04/04 09:11:53;;;;;;;34.90;20.87;;;8.00;99.90;;;;;;5072531;28;20157;-84
2021/04/04 09:14:20;;;;;;;29.23;19.63;;;8.00;99.90;;;;;;5072821;28;20491;-83
2021/04/04 09:16:57;;;;;;;32.60;21.77;;;7.90;99.90;;;;;;5054714;28;20176;-83
2021/04/04 09:19:29;;;;;;;29.47;21.70;;;7.80;99.90;;;;;;5072857;28;20656;-84
2021/04/04 09:21:57;;;;;;;34.20;22.43;;;8.00;99.90;;;;;;5071783;28;20225;-82
2021/04/04 09:24:24;;;;;;;32.17;21.07;;;8.00;99.90;;;;;;5072768;28;20164;-84
2021/04/04 09:26:51;;;;;;;28.83;20.80;;;8.00;99.90;;;;;;5072446;28;20168;-84
2021/04/04 09:29:18;;;;;;;34.53;22.03;;;7.90;99.90;;;;;;5072563;28;20244;-83
2021/04/04 09:31:50;;;;;;;37.43;25.43;;;7.80;99.90;;;;;;5072477;28;20527;-84
2021/04/04 09:34:18;;;;;;;32.60;22.27;;;7.70;99.90;;;;;;5072414;28;20509;-80
2021/04/04 09:36:51;;;;;;;35.50;22.97;;;7.80;99.90;;;;;;5072418;28;20161;-83
2021/04/04 09:39:26;;;;;;;36.07;21.87;;;8.00;99.90;;;;;;5072189;28;20730;-83
2021/04/04 09:41:54;;;;;;;30.23;23.03;;;8.30;99.90;;;;;;5072119;28;20285;-82
2021/04/04 09:44:34;;;;;;;33.40;22.93;;;8.50;1.00;;;;;;5072290;28;20172;-81
2021/04/04 09:47:03;;;;;;;32.30;22.10;;;8.70;1.00;;;;;;5072276;28;20539;-82
2021/04/04 09:49:44;;;;;;;28.33;20.73;;;8.80;1.00;;;;;;5072300;28;20168;-83
2021/04/04 09:52:14;;;;;;;33.93;23.27;;;8.80;99.90;;;;;;5076799;28;20179;-85
2021/04/04 09:54:54;;;;;;;31.47;22.37;;;8.50;1.00;;;;;;5072444;28;20175;-84
2021/04/04 09:57:20;;;;;;;27.30;22.20;;;8.50;1.00;;;;;;5072102;28;20172;-82
2021/04/04 09:59:46;;;;;;;32.23;22.53;;;8.60;1.00;;;;;;5072859;28;20208;-84
2021/04/04 10:02:11;;;;;;;33.07;23.40;;;8.60;1.00;;;;;;5054526;28;20172;-82
2021/04/04 10:04:44;;;;;;;32.60;21.20;;;8.70;1.00;;;;;;5072002;28;20196;-84
2021/04/04 10:07:10;;;;;;;29.07;20.13;;;8.70;1.00;;;;;;5072104;28;20172;-81
2021/04/04 10:09:37;;;;;;;30.87;21.50;;;8.60;1.00;;;;;;5074755;28;20211;-88
2021/04/04 10:12:04;;;;;;;29.50;20.97;;;8.60;1.00;;;;;;5076054;28;20269;-84
2021/04/04 10:14:29;;;;;;;27.03;21.17;;;8.80;1.00;;;;;;5076426;28;20264;-83
2021/04/04 10:17:14;;;;;;;28.63;21.60;;;8.80;1.00;;;;;;5057925;28;20208;-84
2021/04/04 10:20:06;;;;;;;26.80;20.80;;;8.80;1.00;;;;;;5075452;28;20298;-85
2021/04/04 10:22:50;;;;;;;26.90;20.10;;;8.70;1.00;;;;;;5071724;28;20549;-84
2021/04/04 10:25:17;;;;;;;26.80;20.33;;;8.90;1.00;;;;;;5075990;28;20164;-85
2021/04/04 10:27:43;;;;;;;28.47;19.70;;;8.70;1.00;;;;;;5075372;28;20734;-85
2021/04/04 10:30:12;;;;;;;25.10;19.10;;;8.70;1.00;;;;;;5075596;28;20172;-86
2021/04/04 10:32:43;;;;;;;31.03;20.27;;;8.70;1.00;;;;;;5075563;28;20179;-83
2021/04/04 10:35:10;;;;;;;25.00;18.07;;;8.90;1.00;;;;;;5075384;28;20169;-81
2021/04/04 10:37:37;;;;;;;24.20;18.03;;;8.90;1.00;;;;;;5075551;28;20247;-84
2021/04/04 10:40:09;;;;;;;25.80;18.03;;;8.90;1.00;;;;;;5074996;28;20215;-84
2021/04/04 10:42:36;;;;;;;28.00;17.43;;;8.80;1.00;;;;;;5075282;28;20282;-81
2021/04/04 10:45:14;;;;;;;26.00;17.83;;;8.70;1.00;;;;;;5075098;28;20172;-84
2021/04/04 10:47:41;;;;;;;25.67;17.00;;;8.60;1.00;;;;;;5075026;28;20200;-83
2021/04/04 10:50:13;;;;;;;25.23;17.90;;;8.60;44.80;;;;;;5074613;28;20172;-82
2021/04/04 10:52:40;;;;;;;25.47;16.07;;;8.60;1.00;;;;;;5075290;28;20168;-81
2021/04/04 10:55:07;;;;;;;26.33;18.03;;;8.50;8.70;;;;;;5074974;28;20173;-82
2021/04/04 10:57:37;;;;;;;29.70;17.87;;;8.40;99.90;;;;;;5075006;28;20157;-80
2021/04/04 11:00:09;;;;;;;28.77;16.77;;;8.60;99.90;;;;;;5074944;28;20200;-84
2021/04/04 11:02:39;;;;;;;25.07;17.27;;;8.60;81.10;;;;;;5074822;28;20156;-85
2021/04/04 11:05:07;;;;;;;26.73;17.53;;;8.70;1.00;;;;;;5074878;28;20198;-84
2021/04/04 11:07:34;;;;;;;28.60;16.67;;;8.70;1.00;;;;;;5074976;28;20168;-83
2021/04/04 11:10:02;;;;;;;22.33;16.00;;;8.80;1.00;;;;;;5074786;28;20206;-81
2021/04/04 11:12:31;;;;;;;25.10;15.97;;;8.60;1.00;;;;;;5074912;28;20188;-82
2021/04/04 11:14:58;;;;;;;22.57;15.97;;;8.50;5.60;;;;;;5074499;28;20165;-83
2021/04/04 11:17:25;;;;;;;27.00;16.73;;;8.30;99.90;;;;;;5074985;28;20268;-81
2021/04/04 11:19:51;;;;;;;25.10;17.47;;;8.50;82.80;;;;;;5074339;28;20261;-82
2021/04/04 11:22:20;;;;;;;25.47;16.80;;;8.80;1.00;;;;;;5074930;28;20208;-82
2021/04/04 11:25:00;;;;;;;23.13;15.00;;;8.90;1.00;;;;;;5056795;28;20204;-83
2021/04/04 11:27:56;;;;;;;21.63;15.03;;;9.00;1.00;;;;;;5074492;28;20237;-82
2021/04/04 11:30:27;;;;;;;24.80;16.00;;;8.90;1.00;;;;;;5052810;28;21008;-79
2021/04/04 11:33:15;;;;;;;23.30;14.83;;;8.90;1.00;;;;;;5073598;28;20168;-83
2021/04/04 11:35:57;;;;;;;20.23;14.77;;;9.10;99.90;;;;;;5056564;28;20639;-85
2021/04/04 11:38:23;;;;;;;21.67;15.83;;;9.00;99.90;;;;;;5074198;28;20176;-84
2021/04/04 11:41:14;;;;;;;22.37;15.20;;;9.10;99.90;;;;;;5074132;28;20717;-85
2021/04/04 11:43:41;;;;;;;21.43;15.10;;;9.40;99.90;;;;;;5056174;28;20165;-83
2021/04/04 11:46:50;;;;;;;24.23;15.37;;;9.50;99.90;;;;;;5073818;28;20161;-81
2021/04/04 11:49:35;;;;;;;23.57;14.60;;;9.50;99.90;;;;;;5056260;28;20172;-80
2021/04/04 11:52:21;;;;;;;28.23;15.30;;;9.30;99.90;;;;;;5073882;28;20164;-85
2021/04/04 11:57:18;;;;;;;21.10;14.60;;;9.40;99.90;;;;;;5073768;28;20172;-83
2021/04/04 11:59:44;;;;;;;21.00;14.27;;;9.70;99.90;;;;;;5073382;28;20327;-84
2021/04/04 12:02:10;;;;;;;19.87;14.43;;;9.90;99.90;;;;;;5073725;28;20203;-84
2021/04/04 12:04:44;;;;;;;26.30;14.37;;;10.10;80.60;;;;;;5056180;28;20225;-85
2021/04/04 12:07:12;;;;;;;19.67;12.73;;;10.00;39.90;;;;;;5073669;28;20501;-82
2021/04/04 12:09:40;;;;;;;22.80;14.47;;;9.80;99.90;;;;;;5073855;28;20179;-84
2021/04/04 12:12:06;;;;;;;16.77;13.07;;;9.40;99.90;;;;;;5055683;28;20227;-83
2021/04/04 12:14:54;;;;;;;23.57;13.57;;;9.20;99.90;;;;;;5055781;28;20168;-81
2021/04/04 12:17:22;;;;;;;21.00;12.67;;;9.20;1.00;;;;;;5073562;28;20175;-80
2021/04/04 12:19:48;;;;;;;20.10;11.23;;;9.00;1.00;;;;;;5073585;28;20207;-79
2021/04/04 12:22:17;;;;;;;20.47;12.13;;;8.90;1.00;;;;;;5073478;28;20637;-82
2021/04/04 12:24:50;;;;;;;21.03;11.57;;;8.80;1.00;;;;;;5073598;28;20173;-81
2021/04/04 12:27:19;;;;;;;18.87;10.63;;;8.90;1.00;;;;;;5055193;28;20172;-82
2021/04/04 12:29:50;;;;;;;18.30;11.20;;;9.20;1.00;;;;;;5055266;28;20656;-82
2021/04/04 12:32:33;;;;;;;21.97;11.33;;;9.20;1.00;;;;;;5072707;28;20254;-84
2021/04/04 12:35:02;;;;;;;15.93;10.70;;;9.10;1.00;;;;;;5073396;28;20200;-84
2021/04/04 12:37:30;;;;;;;16.83;10.63;;;9.10;1.00;;;;;;5072950;28;20180;-84
2021/04/04 12:39:58;;;;;;;17.27;9.73;;;9.10;1.00;;;;;;5072928;28;20269;-83
2021/04/04 12:42:26;;;;;;;18.60;9.60;;;9.20;1.00;;;;;;5073278;28;20192;-81
2021/04/04 12:44:52;;;;;;;17.70;10.10;;;9.10;1.00;;;;;;5072997;28;20176;-81
2021/04/04 12:47:22;;;;;;;18.13;9.70;;;9.10;1.00;;;;;;5073002;28;20172;-85
2021/04/04 12:50:14;;;;;;;18.23;10.47;;;9.20;99.90;;;;;;5073100;28;20562;-83
2021/04/04 12:52:43;;;;;;;17.63;9.87;;;9.10;1.00;;;;;;5072907;28;20549;-81
2021/04/04 12:55:08;;;;;;;21.87;9.73;;;9.10;1.00;;;;;;5073055;28;20176;-85
2021/04/04 12:57:34;;;;;;;16.87;9.47;;;9.30;1.00;;;;;;5054681;28;20533;-83
2021/04/04 13:00:00;;;;;;;17.37;10.20;;;9.40;99.90;;;;;;5073132;28;20214;-80
2021/04/04 13:02:25;;;;;;;14.67;8.90;;;9.60;99.90;;;;;;5072794;28;20254;-81
2021/04/04 13:04:59;;;;;;;15.80;8.77;;;9.50;99.90;;;;;;5072939;28;20536;-80
2021/04/04 13:07:26;;;;;;;14.93;9.87;;;9.40;99.90;;;;;;5072563;28;20176;-83
2021/04/04 13:09:52;;;;;;;16.17;8.97;;;9.20;99.90;;;;;;5054993;28;20194;-84
2021/04/04 13:12:20;;;;;;;18.67;9.37;;;9.20;99.90;;;;;;5072287;28;20255;-81
2021/04/04 13:14:46;;;;;;;18.23;9.30;;;9.20;99.90;;;;;;5072901;28;20168;-80
2021/04/04 13:17:12;;;;;;;15.87;8.93;;;9.40;99.90;;;;;;5054121;28;20172;-82
2021/04/04 13:19:42;;;;;;;16.90;9.07;;;9.70;99.90;;;;;;5072571;28;20686;-87